createdAt,value
2022-10-05T00:00:19.963Z,5.82
2022-10-05T00:02:49.191Z,5.88
2022-10-05T00:05:36.449Z,6.20
2022-10-05T00:08:15.930Z,6.60
2022-10-05T00:10:43.536Z,5.85
2022-10-05T00:13:25.125Z,6.30
2022-10-05T00:16:00.180Z,5.95
2022-10-05T00:18:27.478Z,5.68
2022-10-05T00:20:54.979Z,6.22
2022-10-05T00:23:32.151Z,5.38
2022-10-05T00:26:14.851Z,6.03
2022-10-05T00:28:41.848Z,5.30
2022-10-05T00:31:19.760Z,5.93
2022-10-05T00:33:47.722Z,5.80
2022-10-05T00:36:15.120Z,5.45
2022-10-05T00:38:42.882Z,5.05
2022-10-05T00:41:34.295Z,5.47
2022-10-05T00:44:31.480Z,5.43
2022-10-05T00:47:23.408Z,5.13
2022-10-05T00:50:10.105Z,5.13
2022-10-05T00:52:43.942Z,5.07
2022-10-05T00:55:51.532Z,5.00
2022-10-05T00:58:33.835Z,4.55
2022-10-05T01:01:09.895Z,4.50
2022-10-05T01:04:13.920Z,4.30
2022-10-05T01:07:10.079Z,5.07
2022-10-05T01:09:59.237Z,4.97
2022-10-05T01:13:10.857Z,4.80
2022-10-05T01:15:51.651Z,5.10
2022-10-05T01:18:30.341Z,4.53
2022-10-05T01:21:21.693Z,4.80
2022-10-05T01:24:22.500Z,4.60
2022-10-05T01:27:02.431Z,5.07
2022-10-05T01:29:48.038Z,5.07
2022-10-05T01:32:20.603Z,4.40
2022-10-05T01:35:18.933Z,5.03
2022-10-05T01:38:03.615Z,5.15
2022-10-05T01:41:27.008Z,5.28
2022-10-05T01:44:20.415Z,5.00
2022-10-05T01:47:06.251Z,5.75
2022-10-05T01:50:08.156Z,5.60
2022-10-05T01:53:15.936Z,5.75
2022-10-05T01:55:55.070Z,5.85
2022-10-05T01:58:55.650Z,5.72
2022-10-05T02:01:36.898Z,6.55
2022-10-05T02:04:29.530Z,6.07
2022-10-05T02:07:09.296Z,5.72
2022-10-05T02:09:46.786Z,6.18
2022-10-05T02:12:19.397Z,6.13
2022-10-05T02:14:57.114Z,5.63
2022-10-05T02:17:38.804Z,6.47
2022-10-05T02:20:11.502Z,5.88
2022-10-05T02:22:53.897Z,6.10
2022-10-05T02:25:27.884Z,6.10
2022-10-05T02:28:18.453Z,6.18
2022-10-05T02:30:54.077Z,5.97
2022-10-05T02:33:29.715Z,6.43
2022-10-05T02:36:15.979Z,6.60
2022-10-05T02:39:05.947Z,6.53
2022-10-05T02:42:10.203Z,6.88
2022-10-05T02:45:14.244Z,6.05
2022-10-05T02:48:17.892Z,6.60
2022-10-05T02:51:28.833Z,6.28
2022-10-05T02:54:40.158Z,6.53
2022-10-05T02:57:34.015Z,6.75
2022-10-05T03:00:23.068Z,6.50
2022-10-05T03:03:06.603Z,6.90
2022-10-05T03:05:51.707Z,6.55
2022-10-05T03:08:31.880Z,6.05
2022-10-05T03:11:07.616Z,7.03
2022-10-05T03:14:03.217Z,6.20
2022-10-05T03:17:00.546Z,6.68
2022-10-05T03:19:54.332Z,6.70
2022-10-05T03:23:02.044Z,7.18
2022-10-05T03:26:44.903Z,6.70
2022-10-05T03:29:30.059Z,6.37
2022-10-05T03:32:32.042Z,6.70
2022-10-05T03:35:23.540Z,6.22
2022-10-05T03:38:11.471Z,6.57
2022-10-05T03:40:53.836Z,6.53
2022-10-05T03:43:57.002Z,6.93
2022-10-05T03:46:45.899Z,6.30
2022-10-05T03:49:30.514Z,6.27
2022-10-05T03:52:10.527Z,6.07
2022-10-05T03:55:04.180Z,7.03
2022-10-05T03:57:38.843Z,6.17
2022-10-05T04:00:23.495Z,6.33
2022-10-05T04:03:17.774Z,6.60
2022-10-05T04:05:54.147Z,6.07
2022-10-05T04:08:35.628Z,6.07
2022-10-05T04:11:12.621Z,6.80
2022-10-05T04:13:52.512Z,6.32
2022-10-05T04:16:29.603Z,5.63
2022-10-05T04:19:31.970Z,5.60
2022-10-05T04:22:21.800Z,6.27
2022-10-05T04:25:01.639Z,5.55
2022-10-05T04:27:42.445Z,5.65
2022-10-05T04:30:19.747Z,5.78
2022-10-05T04:32:57.334Z,6.15
2022-10-05T04:35:54.039Z,6.10
2022-10-05T04:38:30.666Z,6.30
2022-10-05T04:41:23.661Z,6.10
2022-10-05T04:44:15.214Z,6.03
2022-10-05T04:47:25.809Z,5.50
2022-10-05T04:50:20.475Z,5.65
2022-10-05T04:53:22.300Z,6.03
2022-10-05T04:56:09.761Z,5.70
2022-10-05T04:59:22.038Z,5.90
2022-10-05T05:01:52.097Z,5.60
2022-10-05T05:04:41.271Z,6.20
2022-10-05T05:07:24.360Z,5.87
2022-10-05T05:10:01.491Z,5.77
2022-10-05T05:12:37.806Z,6.20
2022-10-05T05:15:16.578Z,6.07
2022-10-05T05:18:17.690Z,5.93
2022-10-05T05:21:16.791Z,6.85
2022-10-05T05:24:02.150Z,6.03
2022-10-05T05:27:04.555Z,6.18
2022-10-05T05:29:47.200Z,6.65
2022-10-05T05:32:41.595Z,6.75
2022-10-05T05:35:35.677Z,6.50
2022-10-05T05:38:29.444Z,7.03
2022-10-05T05:41:30.203Z,6.55
2022-10-05T05:44:25.450Z,6.45
2022-10-05T05:47:19.942Z,6.82
2022-10-05T05:50:30.438Z,6.47
2022-10-05T05:53:25.393Z,5.85
2022-10-05T05:56:05.815Z,6.55
2022-10-05T05:59:22.664Z,6.65
2022-10-05T06:02:19.335Z,6.18
2022-10-05T06:04:58.004Z,6.63
2022-10-05T06:07:30.908Z,6.22
2022-10-05T06:10:26.468Z,6.43
2022-10-05T06:13:16.333Z,5.65
2022-10-05T06:15:52.649Z,6.38
2022-10-05T06:18:21.669Z,6.32
2022-10-05T06:21:05.572Z,5.90
2022-10-05T06:24:16.105Z,6.00
2022-10-05T06:27:11.129Z,5.68
2022-10-05T06:29:59.125Z,5.78
2022-10-05T06:32:50.856Z,5.60
2022-10-05T06:36:03.800Z,5.78
2022-10-05T06:38:50.468Z,5.38
2022-10-05T06:41:52.404Z,5.82
2022-10-05T06:45:04.935Z,5.30
2022-10-05T06:48:15.853Z,5.47
2022-10-05T06:51:42.184Z,5.93
2022-10-05T06:54:59.512Z,5.25
2022-10-05T06:57:48.031Z,5.18
2022-10-05T07:00:35.417Z,5.20
2022-10-05T07:03:41.734Z,4.78
2022-10-05T07:06:30.085Z,5.28
2022-10-05T07:09:32.547Z,5.43
2022-10-05T07:12:45.255Z,4.72
2022-10-05T07:15:36.513Z,4.78
2022-10-05T07:18:49.164Z,4.70
2022-10-05T07:21:32.897Z,4.82
2022-10-05T07:24:13.496Z,5.07
2022-10-05T07:26:50.523Z,4.63
2022-10-05T07:29:38.361Z,4.28
2022-10-05T07:32:40.237Z,4.43
2022-10-05T07:36:09.473Z,4.60
2022-10-05T07:39:01.649Z,4.88
2022-10-05T07:41:43.629Z,4.82
2022-10-05T07:44:33.375Z,4.28
2022-10-05T07:47:21.291Z,3.92
2022-10-05T07:49:59.890Z,4.88
2022-10-05T07:52:37.532Z,4.35
2022-10-05T07:55:22.199Z,4.90
2022-10-05T07:58:32.291Z,4.65
2022-10-05T08:01:04.879Z,4.47
2022-10-05T08:04:05.064Z,4.78
2022-10-05T08:06:38.210Z,4.25
2022-10-05T08:09:35.916Z,4.50
2022-10-05T08:12:40.166Z,4.32
2022-10-05T08:15:16.181Z,4.38
2022-10-05T08:18:14.560Z,4.20
2022-10-05T08:20:50.121Z,4.50
2022-10-05T08:23:38.610Z,4.38
2022-10-05T08:26:35.926Z,4.18
2022-10-05T08:29:22.788Z,4.68
2022-10-05T08:31:53.937Z,4.80
2022-10-05T08:34:31.044Z,4.07
2022-10-05T08:37:07.158Z,4.18
2022-10-05T08:39:42.665Z,4.28
2022-10-05T08:42:37.198Z,4.18
2022-10-05T08:45:33.777Z,4.20
2022-10-05T08:48:51.450Z,3.80
2022-10-05T08:51:47.835Z,3.53
2022-10-05T08:54:30.255Z,4.32
2022-10-05T08:57:46.683Z,4.00
2022-10-05T09:00:33.705Z,4.35
2022-10-05T09:03:47.376Z,4.47
2022-10-05T09:06:25.530Z,3.72
2022-10-05T09:09:28.695Z,3.95
2022-10-05T09:12:55.380Z,4.00
2022-10-05T09:15:39.901Z,3.70
2022-10-05T09:18:45.743Z,3.67
2022-10-05T09:21:39.637Z,3.60
2022-10-05T09:24:55.165Z,3.97
2022-10-05T09:27:39.129Z,3.97
2022-10-05T09:30:29.542Z,3.72
2022-10-05T09:33:31.821Z,4.10
2022-10-05T09:36:13.973Z,3.65
2022-10-05T09:39:13.434Z,4.40
2022-10-05T09:42:08.186Z,3.40
2022-10-05T09:45:08.595Z,3.60
2022-10-05T09:48:36.145Z,3.95
2022-10-05T09:51:20.855Z,3.58
2022-10-05T09:54:28.908Z,3.33
2022-10-05T09:57:13.549Z,3.03
2022-10-05T10:00:15.674Z,3.75
2022-10-05T10:03:26.972Z,3.40
2022-10-05T10:06:43.099Z,3.53
2022-10-05T10:09:51.388Z,3.38
2022-10-05T10:12:34.700Z,4.10
2022-10-05T10:15:23.981Z,3.47
2022-10-05T10:18:17.690Z,3.15
2022-10-05T10:21:33.250Z,3.88
2022-10-05T10:24:36.059Z,3.60
2022-10-05T10:27:12.633Z,4.03
2022-10-05T10:30:28.894Z,3.30
2022-10-05T10:33:11.372Z,3.33
2022-10-05T10:35:53.783Z,3.70
2022-10-05T10:38:31.040Z,3.85
2022-10-05T10:41:35.552Z,3.70
2022-10-05T10:44:21.051Z,3.70
2022-10-05T10:47:35.656Z,4.30
2022-10-05T10:50:36.923Z,3.72
2022-10-05T10:53:37.418Z,3.78
2022-10-05T10:56:29.141Z,3.40
2022-10-05T10:59:26.619Z,3.22
2022-10-05T11:02:37.385Z,3.47
2022-10-05T11:05:48.795Z,3.15
2022-10-05T11:08:40.925Z,2.97
2022-10-05T11:11:22.592Z,3.40
2022-10-05T11:14:21.350Z,3.00
2022-10-05T11:17:15.589Z,3.40
2022-10-05T11:20:42.348Z,2.97
2022-10-05T11:23:52.503Z,2.72
2022-10-05T11:26:54.596Z,2.72
2022-10-05T11:36:27.413Z,3.83
2022-10-05T11:39:16.353Z,3.72
2022-10-05T11:42:27.503Z,3.03
2022-10-05T11:45:16.003Z,3.40
2022-10-05T11:48:04.376Z,2.67
2022-10-05T11:51:13.155Z,2.97
2022-10-05T11:53:57.571Z,3.60
2022-10-05T11:56:32.236Z,3.55
2022-10-05T11:59:26.631Z,3.30
2022-10-05T12:02:27.325Z,3.42
2022-10-05T12:05:18.818Z,3.30
2022-10-05T12:08:19.787Z,3.50
2022-10-05T12:11:09.126Z,3.92
2022-10-05T12:13:41.774Z,4.28
2022-10-05T12:16:35.549Z,3.70
2022-10-05T12:19:17.662Z,4.20
2022-10-05T12:22:09.920Z,3.80
2022-10-05T12:24:36.680Z,3.72
2022-10-05T12:27:13.900Z,4.30
2022-10-05T12:29:51.160Z,4.25
2022-10-05T12:32:33.641Z,3.95
2022-10-05T12:35:47.483Z,3.83
2022-10-05T12:38:29.102Z,3.80
2022-10-05T12:41:10.857Z,3.88
2022-10-05T12:44:07.112Z,3.92
2022-10-05T12:47:01.175Z,3.95
2022-10-05T12:50:08.064Z,4.43
2022-10-05T12:52:57.434Z,3.80
2022-10-05T12:55:50.459Z,3.95
2022-10-05T12:58:32.231Z,4.00
2022-10-05T13:01:40.673Z,4.15
2022-10-05T13:04:20.540Z,4.53
2022-10-05T13:07:08.790Z,4.18
2022-10-05T13:10:11.815Z,4.53
2022-10-05T13:13:23.599Z,4.15
2022-10-05T13:16:04.405Z,4.70
2022-10-05T13:18:59.319Z,3.92
2022-10-05T13:21:56.985Z,4.25
2022-10-05T13:24:30.570Z,3.97
2022-10-05T13:27:19.002Z,5.05
2022-10-05T13:30:14.710Z,4.22
2022-10-05T13:32:52.173Z,4.80
2022-10-05T13:35:51.038Z,4.28
2022-10-05T13:38:49.963Z,4.57
2022-10-05T13:41:41.132Z,4.32
2022-10-05T13:44:34.207Z,5.25
2022-10-05T13:47:39.644Z,5.13
2022-10-05T13:50:28.559Z,4.72
2022-10-05T13:53:39.368Z,4.55
2022-10-05T13:56:40.086Z,4.97
2022-10-05T13:59:44.417Z,5.40
2022-10-05T14:02:17.846Z,4.70
2022-10-05T14:04:59.014Z,4.25
2022-10-05T14:07:47.962Z,5.78
2022-10-05T14:10:34.155Z,5.28
2022-10-05T14:13:17.100Z,5.72
2022-10-05T14:16:20.757Z,5.40
2022-10-05T14:19:06.021Z,4.80
2022-10-05T14:22:01.871Z,4.50
2022-10-05T14:24:45.353Z,4.32
2022-10-05T14:27:27.604Z,4.10
2022-10-05T14:30:09.460Z,4.15
2022-10-05T14:33:05.919Z,3.75
2022-10-05T14:35:54.839Z,4.22
2022-10-05T14:38:51.692Z,3.75
2022-10-05T14:41:21.730Z,3.95
2022-10-05T14:44:09.147Z,3.88
2022-10-05T14:46:39.420Z,3.58
2022-10-05T14:49:22.751Z,3.25
2022-10-05T14:51:51.574Z,3.90
2022-10-05T14:54:47.234Z,3.95
2022-10-05T14:57:30.780Z,3.83
2022-10-05T15:00:12.379Z,3.60
2022-10-05T15:03:10.900Z,3.40
2022-10-05T15:05:59.121Z,3.92
2022-10-05T15:09:01.876Z,4.32
2022-10-05T15:11:55.274Z,6.13
2022-10-05T15:14:38.642Z,7.55
2022-10-05T15:17:20.569Z,6.22
2022-10-05T15:20:20.576Z,6.90
2022-10-05T15:23:00.441Z,7.70
2022-10-05T15:25:40.503Z,7.35
2022-10-05T15:28:38.899Z,6.15
2022-10-05T15:31:22.223Z,6.57
2022-10-05T15:34:11.454Z,6.05
2022-10-05T15:37:00.944Z,5.43
2022-10-05T15:39:52.835Z,7.03
2022-10-05T15:42:38.423Z,6.53
2022-10-05T15:45:32.757Z,5.85
2022-10-05T15:48:15.817Z,5.80
2022-10-05T15:51:16.567Z,6.10
2022-10-05T15:54:43.348Z,6.38
2022-10-05T15:57:50.819Z,6.65
2022-10-05T16:00:20.782Z,5.45
2022-10-05T16:03:51.338Z,5.60
2022-10-05T16:06:56.047Z,6.00
2022-10-05T16:09:59.422Z,6.25
2022-10-05T16:12:52.177Z,6.68
2022-10-05T16:15:42.978Z,6.80
2022-10-05T16:18:32.637Z,6.63
2022-10-05T16:21:41.400Z,6.32
2022-10-05T16:24:37.386Z,5.43
2022-10-05T16:27:16.249Z,6.22
2022-10-05T16:30:04.587Z,7.43
2022-10-05T16:32:51.081Z,7.35
2022-10-05T16:36:02.948Z,7.45
2022-10-05T16:38:55.072Z,7.85
2022-10-05T16:41:54.448Z,7.00
2022-10-05T16:44:56.326Z,6.53
2022-10-05T16:47:35.324Z,6.90
2022-10-05T16:50:28.639Z,7.38
2022-10-05T16:53:30.634Z,7.22
2022-10-05T16:56:11.279Z,6.78
2022-10-05T16:59:07.099Z,7.10
2022-10-05T17:02:03.239Z,6.78
2022-10-05T17:04:58.098Z,6.90
2022-10-05T17:07:43.887Z,6.72
2022-10-05T17:10:37.173Z,6.13
2022-10-05T17:13:40.929Z,6.57
2022-10-05T17:16:25.998Z,6.57
2022-10-05T17:19:37.794Z,5.95
2022-10-05T17:22:46.501Z,6.28
2022-10-05T17:25:34.908Z,5.88
2022-10-05T17:28:25.108Z,5.35
2022-10-05T17:31:13.852Z,6.28
2022-10-05T17:34:28.239Z,5.50
2022-10-05T17:37:28.183Z,6.00
2022-10-05T17:39:57.061Z,5.43
2022-10-05T17:42:45.596Z,5.43
2022-10-05T17:45:12.350Z,6.07
2022-10-05T17:48:00.550Z,4.93
2022-10-05T17:51:00.481Z,5.47
2022-10-05T17:53:57.933Z,5.50
2022-10-05T17:56:24.839Z,5.20
2022-10-05T17:58:54.507Z,5.10
2022-10-05T18:01:34.470Z,5.50
2022-10-05T18:04:13.470Z,5.18
2022-10-05T18:06:51.904Z,5.60
2022-10-05T18:09:33.110Z,5.50
2022-10-05T18:12:27.061Z,5.47
2022-10-05T18:15:38.005Z,4.95
2022-10-05T18:18:42.286Z,4.93
2022-10-05T18:21:15.179Z,6.03
2022-10-05T18:24:01.456Z,5.55
2022-10-05T18:26:57.312Z,5.00
2022-10-05T18:30:08.834Z,5.18
2022-10-05T18:33:12.805Z,5.13
2022-10-05T18:36:20.454Z,4.75
2022-10-05T18:39:11.866Z,6.63
2022-10-05T18:41:46.979Z,6.90
2022-10-05T18:44:50.422Z,7.25
2022-10-05T18:48:02.357Z,6.47
2022-10-05T18:50:34.992Z,6.60
2022-10-05T18:53:46.672Z,5.50
2022-10-05T18:56:35.809Z,5.57
2022-10-05T18:59:26.761Z,5.47
2022-10-05T19:02:02.661Z,5.35
2022-10-05T19:05:09.207Z,4.43
2022-10-05T19:08:21.062Z,4.55
2022-10-05T19:10:55.825Z,5.50
2022-10-05T19:13:44.549Z,4.97
2022-10-05T19:16:23.382Z,6.32
2022-10-05T19:19:10.135Z,4.80
2022-10-05T19:22:01.109Z,5.38
2022-10-05T19:24:53.882Z,6.03
2022-10-05T19:27:46.637Z,5.00
2022-10-05T19:30:27.248Z,5.10
2022-10-05T19:33:31.268Z,5.60
2022-10-05T19:36:29.374Z,5.28
2022-10-05T19:39:06.526Z,4.97
2022-10-05T19:41:59.425Z,6.00
2022-10-05T19:44:47.599Z,6.22
2022-10-05T19:47:41.113Z,5.90
2022-10-05T19:50:23.495Z,6.35
2022-10-05T19:52:57.372Z,6.18
2022-10-05T19:55:32.063Z,6.43
2022-10-05T19:58:01.321Z,6.07
2022-10-05T20:00:35.469Z,5.97
2022-10-05T20:03:12.138Z,5.90
2022-10-05T20:05:40.261Z,6.03
2022-10-05T20:08:12.506Z,5.38
2022-10-05T20:10:39.396Z,6.00
2022-10-05T20:13:08.697Z,6.53
2022-10-05T20:15:55.055Z,7.68
2022-10-05T20:19:06.777Z,7.22
2022-10-05T20:21:59.872Z,6.90
2022-10-05T20:24:29.284Z,5.95
2022-10-05T20:27:16.585Z,6.30
2022-10-05T20:29:44.939Z,5.95
2022-10-05T20:32:17.978Z,6.40
2022-10-05T20:34:47.323Z,5.88
2022-10-05T20:37:17.574Z,5.70
2022-10-05T20:39:44.901Z,5.63
2022-10-05T20:42:12.059Z,5.40
2022-10-05T20:44:39.824Z,5.25
2022-10-05T20:47:09.793Z,5.55
2022-10-05T20:49:38.791Z,5.93
2022-10-05T20:52:10.183Z,6.28
2022-10-05T20:54:39.006Z,5.43
2022-10-05T20:57:06.604Z,5.97
2022-10-05T20:59:34.395Z,5.40
2022-10-05T21:02:02.121Z,5.82
2022-10-05T21:04:43.113Z,5.57
2022-10-05T21:07:10.121Z,6.15
2022-10-05T21:09:38.483Z,6.10
2022-10-05T21:12:05.740Z,4.93
2022-10-05T21:14:34.516Z,5.60
2022-10-05T21:17:02.174Z,5.10
2022-10-05T21:19:29.696Z,5.25
2022-10-05T21:22:02.503Z,5.60
2022-10-05T21:24:29.455Z,4.82
2022-10-05T21:26:57.610Z,4.90
2022-10-05T21:29:24.636Z,5.35
2022-10-05T21:31:51.701Z,5.05
2022-10-05T21:34:18.705Z,5.53
2022-10-05T21:36:45.614Z,5.05
2022-10-05T21:39:12.509Z,5.32
2022-10-05T21:41:39.507Z,5.47
2022-10-05T21:44:06.827Z,4.88
2022-10-05T21:46:36.949Z,5.40
2022-10-05T21:49:06.970Z,5.50
2022-10-05T21:51:35.826Z,5.63
2022-10-05T21:54:10.504Z,5.57
2022-10-05T21:56:41.944Z,4.93
2022-10-05T21:59:11.909Z,5.45
2022-10-05T22:01:38.851Z,5.60
2022-10-05T22:04:06.725Z,5.88
2022-10-05T22:06:35.455Z,5.95
2022-10-05T22:09:03.604Z,5.18
2022-10-05T22:11:31.654Z,5.47
2022-10-05T22:14:02.508Z,5.90
2022-10-05T22:16:34.148Z,6.07
2022-10-05T22:19:06.358Z,6.32
2022-10-05T22:21:38.006Z,6.63
2022-10-05T22:24:05.604Z,6.10
2022-10-05T22:26:33.313Z,6.55
2022-10-05T22:29:01.783Z,5.43
2022-10-05T22:31:28.949Z,5.72
2022-10-05T22:33:55.973Z,6.05
2022-10-05T22:36:23.046Z,5.70
2022-10-05T22:38:49.988Z,6.03
2022-10-05T22:41:18.582Z,5.60
2022-10-05T22:43:48.782Z,5.80
2022-10-05T22:46:15.958Z,5.72
2022-10-05T22:48:43.302Z,6.32
2022-10-05T22:51:10.414Z,5.28
2022-10-05T22:53:37.575Z,5.90
2022-10-05T22:56:10.657Z,5.43
2022-10-05T22:58:38.205Z,5.10
2022-10-05T23:01:08.728Z,5.38
2022-10-05T23:03:35.728Z,5.47
2022-10-05T23:06:18.744Z,4.75
2022-10-05T23:08:46.457Z,5.40
2022-10-05T23:11:22.016Z,5.20
2022-10-05T23:13:50.785Z,5.80
2022-10-05T23:16:20.617Z,5.57
2022-10-05T23:18:50.329Z,5.80
2022-10-05T23:21:19.274Z,5.43
2022-10-05T23:23:48.972Z,5.30
2022-10-05T23:26:17.661Z,5.20
2022-10-05T23:28:48.012Z,5.50
2022-10-05T23:31:18.420Z,5.10
2022-10-05T23:33:45.507Z,5.45
2022-10-05T23:36:19.939Z,5.70
2022-10-05T23:38:47.186Z,5.63
2022-10-05T23:41:16.021Z,4.90
2022-10-05T23:43:43.466Z,5.22
2022-10-05T23:46:10.796Z,5.07
2022-10-05T23:48:40.749Z,5.13
2022-10-05T23:51:11.027Z,5.43
2022-10-05T23:53:38.168Z,5.50
2022-10-05T23:56:05.745Z,5.32
2022-10-05T23:58:32.694Z,5.40
